sensor_id;sensor_type;location;lat;lon;timestamp;P1;durP1;ratioP1;P2;durP2;ratioP2
64686;SDS011;51113;53.646;-113.674;2023-06-05T00:01:17;6.68;;;3.83;;
64686;SDS011;51113;53.646;-113.674;2023-06-05T00:03:45;9.88;;;4.28;;
64686;SDS011;51113;53.646;-113.674;2023-06-05T00:06:14;6.10;;;4.00;;
64686;SDS011;51113;53.646;-113.674;2023-06-05T00:08:43;6.22;;;4.00;;
64686;SDS011;51113;53.646;-113.674;2023-06-05T00:11:12;10.35;;;4.18;;
64686;SDS011;51113;53.646;-113.674;2023-06-05T00:13:41;6.28;;;3.72;;
64686;SDS011;51113;53.646;-113.674;2023-06-05T00:16:10;11.40;;;4.00;;
64686;SDS011;51113;53.646;-113.674;2023-06-05T00:18:38;9.23;;;4.07;;
64686;SDS011;51113;53.646;-113.674;2023-06-05T00:21:07;8.35;;;3.80;;
64686;SDS011;51113;53.646;-113.674;2023-06-05T00:23:36;9.70;;;3.80;;
64686;SDS011;51113;53.646;-113.674;2023-06-05T00:26:04;7.00;;;3.60;;
64686;SDS011;51113;53.646;-113.674;2023-06-05T00:28:33;8.73;;;4.32;;
64686;SDS011;51113;53.646;-113.674;2023-06-05T00:31:02;6.18;;;3.42;;
64686;SDS011;51113;53.646;-113.674;2023-06-05T00:33:30;7.70;;;3.70;;
64686;SDS011;51113;53.646;-113.674;2023-06-05T00:35:59;9.45;;;4.40;;
64686;SDS011;51113;53.646;-113.674;2023-06-05T00:38:27;8.00;;;3.83;;
64686;SDS011;51113;53.646;-113.674;2023-06-05T00:40:56;7.00;;;3.88;;
64686;SDS011;51113;53.646;-113.674;2023-06-05T00:43:25;7.13;;;4.03;;
64686;SDS011;51113;53.646;-113.674;2023-06-05T00:45:57;4.93;;;3.30;;
64686;SDS011;51113;53.646;-113.674;2023-06-05T00:48:31;9.48;;;4.38;;
64686;SDS011;51113;53.646;-113.674;2023-06-05T00:51:01;6.10;;;3.50;;
64686;SDS011;51113;53.646;-113.674;2023-06-05T00:53:30;6.13;;;3.63;;
64686;SDS011;51113;53.646;-113.674;2023-06-05T00:56:03;6.78;;;3.88;;
64686;SDS011;51113;53.646;-113.674;2023-06-05T00:58:33;6.90;;;4.15;;
64686;SDS011;51113;53.646;-113.674;2023-06-05T01:01:03;7.68;;;4.10;;
64686;SDS011;51113;53.646;-113.674;2023-06-05T01:03:34;5.40;;;3.67;;
64686;SDS011;51113;53.646;-113.674;2023-06-05T01:06:03;7.07;;;4.00;;
64686;SDS011;51113;53.646;-113.674;2023-06-05T01:08:32;9.25;;;3.83;;
64686;SDS011;51113;53.646;-113.674;2023-06-05T01:11:28;7.38;;;3.88;;
64686;SDS011;51113;53.646;-113.674;2023-06-05T01:14:14;5.82;;;3.75;;
64686;SDS011;51113;53.646;-113.674;2023-06-05T01:16:49;10.93;;;4.00;;
64686;SDS011;51113;53.646;-113.674;2023-06-05T01:19:21;6.45;;;3.42;;
64686;SDS011;51113;53.646;-113.674;2023-06-05T01:21:57;7.95;;;3.72;;
64686;SDS011;51113;53.646;-113.674;2023-06-05T01:24:26;6.93;;;3.60;;
64686;SDS011;51113;53.646;-113.674;2023-06-05T01:32:11;4.80;;;2.80;;
64686;SDS011;51113;53.646;-113.674;2023-06-05T01:34:44;6.57;;;3.40;;
64686;SDS011;51113;53.646;-113.674;2023-06-05T01:37:16;8.25;;;3.28;;
64686;SDS011;51113;53.646;-113.674;2023-06-05T01:39:47;7.05;;;2.90;;
64686;SDS011;51113;53.646;-113.674;2023-06-05T01:42:16;6.63;;;3.00;;
64686;SDS011;51113;53.646;-113.674;2023-06-05T01:44:46;6.38;;;2.92;;
64686;SDS011;51113;53.646;-113.674;2023-06-05T01:47:16;6.30;;;2.90;;
64686;SDS011;51113;53.646;-113.674;2023-06-05T01:49:45;6.47;;;2.83;;
64686;SDS011;51113;53.646;-113.674;2023-06-05T01:52:14;5.78;;;2.75;;
64686;SDS011;51113;53.646;-113.674;2023-06-05T01:54:42;7.53;;;2.90;;
64686;SDS011;51113;53.646;-113.674;2023-06-05T01:57:13;7.53;;;2.63;;
64686;SDS011;51113;53.646;-113.674;2023-06-05T01:59:43;5.32;;;3.15;;
64686;SDS011;51113;53.646;-113.674;2023-06-05T02:02:13;7.13;;;3.05;;
64686;SDS011;51113;53.646;-113.674;2023-06-05T02:04:42;4.22;;;2.60;;
64686;SDS011;51113;53.646;-113.674;2023-06-05T02:07:14;5.63;;;2.85;;
64686;SDS011;51113;53.646;-113.674;2023-06-05T02:09:43;6.35;;;2.92;;
64686;SDS011;51113;53.646;-113.674;2023-06-05T02:12:12;4.60;;;2.70;;
64686;SDS011;51113;53.646;-113.674;2023-06-05T02:14:43;8.47;;;3.17;;
64686;SDS011;51113;53.646;-113.674;2023-06-05T02:17:12;8.65;;;3.10;;
64686;SDS011;51113;53.646;-113.674;2023-06-05T02:19:41;4.43;;;2.50;;
64686;SDS011;51113;53.646;-113.674;2023-06-05T02:22:09;7.15;;;2.97;;
64686;SDS011;51113;53.646;-113.674;2023-06-05T02:24:38;5.35;;;2.78;;
64686;SDS011;51113;53.646;-113.674;2023-06-05T02:27:07;6.43;;;2.90;;
64686;SDS011;51113;53.646;-113.674;2023-06-05T02:29:39;6.63;;;2.50;;
64686;SDS011;51113;53.646;-113.674;2023-06-05T02:32:07;6.40;;;2.83;;
64686;SDS011;51113;53.646;-113.674;2023-06-05T02:34:36;4.65;;;2.83;;
64686;SDS011;51113;53.646;-113.674;2023-06-05T02:37:05;5.97;;;2.75;;
64686;SDS011;51113;53.646;-113.674;2023-06-05T02:39:34;6.18;;;2.67;;
64686;SDS011;51113;53.646;-113.674;2023-06-05T02:42:03;13.77;;;3.17;;
64686;SDS011;51113;53.646;-113.674;2023-06-05T02:44:31;11.95;;;2.67;;
64686;SDS011;51113;53.646;-113.674;2023-06-05T02:47:01;8.63;;;2.60;;
64686;SDS011;51113;53.646;-113.674;2023-06-05T02:49:30;4.50;;;2.83;;
64686;SDS011;51113;53.646;-113.674;2023-06-05T02:52:00;8.85;;;2.55;;
64686;SDS011;51113;53.646;-113.674;2023-06-05T02:54:29;4.68;;;2.75;;
64686;SDS011;51113;53.646;-113.674;2023-06-05T02:56:58;6.70;;;2.72;;
64686;SDS011;51113;53.646;-113.674;2023-06-05T02:59:28;6.78;;;2.90;;
64686;SDS011;51113;53.646;-113.674;2023-06-05T03:01:59;3.92;;;2.72;;
64686;SDS011;51113;53.646;-113.674;2023-06-05T03:04:28;9.55;;;2.97;;
64686;SDS011;51113;53.646;-113.674;2023-06-05T03:06:56;6.05;;;2.85;;
64686;SDS011;51113;53.646;-113.674;2023-06-05T03:09:25;4.53;;;2.42;;
64686;SDS011;51113;53.646;-113.674;2023-06-05T03:11:54;5.10;;;2.85;;
64686;SDS011;51113;53.646;-113.674;2023-06-05T03:14:22;9.25;;;2.75;;
64686;SDS011;51113;53.646;-113.674;2023-06-05T03:16:51;8.13;;;2.75;;
64686;SDS011;51113;53.646;-113.674;2023-06-05T03:19:21;7.88;;;2.92;;
64686;SDS011;51113;53.646;-113.674;2023-06-05T03:21:50;5.53;;;2.85;;
64686;SDS011;51113;53.646;-113.674;2023-06-05T03:24:18;5.82;;;2.80;;
64686;SDS011;51113;53.646;-113.674;2023-06-05T03:26:47;6.78;;;2.95;;
64686;SDS011;51113;53.646;-113.674;2023-06-05T03:29:16;6.97;;;2.97;;
64686;SDS011;51113;53.646;-113.674;2023-06-05T03:31:45;4.47;;;2.88;;
64686;SDS011;51113;53.646;-113.674;2023-06-05T03:34:13;5.80;;;2.90;;
64686;SDS011;51113;53.646;-113.674;2023-06-05T03:36:42;4.88;;;3.00;;
64686;SDS011;51113;53.646;-113.674;2023-06-05T03:39:10;9.15;;;3.10;;
64686;SDS011;51113;53.646;-113.674;2023-06-05T03:41:39;4.93;;;3.00;;
64686;SDS011;51113;53.646;-113.674;2023-06-05T03:44:08;4.28;;;2.63;;
64686;SDS011;51113;53.646;-113.674;2023-06-05T03:46:36;5.47;;;2.80;;
64686;SDS011;51113;53.646;-113.674;2023-06-05T03:49:05;4.63;;;2.90;;
64686;SDS011;51113;53.646;-113.674;2023-06-05T03:51:36;5.90;;;3.00;;
64686;SDS011;51113;53.646;-113.674;2023-06-05T03:54:07;9.60;;;3.00;;
64686;SDS011;51113;53.646;-113.674;2023-06-05T03:56:36;6.05;;;3.10;;
64686;SDS011;51113;53.646;-113.674;2023-06-05T03:59:10;8.98;;;3.22;;
64686;SDS011;51113;53.646;-113.674;2023-06-05T04:01:48;6.55;;;3.58;;
64686;SDS011;51113;53.646;-113.674;2023-06-05T04:04:18;6.25;;;3.53;;
64686;SDS011;51113;53.646;-113.674;2023-06-05T04:06:48;6.72;;;3.17;;
64686;SDS011;51113;53.646;-113.674;2023-06-05T04:09:17;15.02;;;2.95;;
64686;SDS011;51113;53.646;-113.674;2023-06-05T04:11:46;6.82;;;3.10;;
64686;SDS011;51113;53.646;-113.674;2023-06-05T04:14:15;8.18;;;3.50;;
64686;SDS011;51113;53.646;-113.674;2023-06-05T04:16:47;5.35;;;2.60;;
64686;SDS011;51113;53.646;-113.674;2023-06-05T04:19:16;5.30;;;3.22;;
64686;SDS011;51113;53.646;-113.674;2023-06-05T04:21:44;10.45;;;3.25;;
64686;SDS011;51113;53.646;-113.674;2023-06-05T04:24:13;7.47;;;3.08;;
64686;SDS011;51113;53.646;-113.674;2023-06-05T04:26:42;7.13;;;2.95;;
64686;SDS011;51113;53.646;-113.674;2023-06-05T04:29:11;5.43;;;2.80;;
64686;SDS011;51113;53.646;-113.674;2023-06-05T04:31:45;6.93;;;3.03;;
64686;SDS011;51113;53.646;-113.674;2023-06-05T04:34:18;6.50;;;3.00;;
64686;SDS011;51113;53.646;-113.674;2023-06-05T04:36:47;4.88;;;2.85;;
64686;SDS011;51113;53.646;-113.674;2023-06-05T04:39:17;5.38;;;3.28;;
64686;SDS011;51113;53.646;-113.674;2023-06-05T04:41:46;5.13;;;2.75;;
64686;SDS011;51113;53.646;-113.674;2023-06-05T04:44:35;4.72;;;2.85;;
64686;SDS011;51113;53.646;-113.674;2023-06-05T04:47:06;5.03;;;2.75;;
64686;SDS011;51113;53.646;-113.674;2023-06-05T04:49:36;4.35;;;2.80;;
64686;SDS011;51113;53.646;-113.674;2023-06-05T04:52:04;4.88;;;2.47;;
64686;SDS011;51113;53.646;-113.674;2023-06-05T04:54:33;6.50;;;3.00;;
64686;SDS011;51113;53.646;-113.674;2023-06-05T04:57:02;6.63;;;3.03;;
64686;SDS011;51113;53.646;-113.674;2023-06-05T04:59:33;5.20;;;3.50;;
64686;SDS011;51113;53.646;-113.674;2023-06-05T05:02:03;4.22;;;2.83;;
64686;SDS011;51113;53.646;-113.674;2023-06-05T05:04:32;4.63;;;3.17;;
64686;SDS011;51113;53.646;-113.674;2023-06-05T05:07:00;4.93;;;3.10;;
64686;SDS011;51113;53.646;-113.674;2023-06-05T05:09:29;5.68;;;3.20;;
64686;SDS011;51113;53.646;-113.674;2023-06-05T05:12:00;4.65;;;3.20;;
64686;SDS011;51113;53.646;-113.674;2023-06-05T05:14:28;5.55;;;2.92;;
64686;SDS011;51113;53.646;-113.674;2023-06-05T05:16:57;4.72;;;3.15;;
64686;SDS011;51113;53.646;-113.674;2023-06-05T05:19:26;7.30;;;3.28;;
64686;SDS011;51113;53.646;-113.674;2023-06-05T05:21:55;7.28;;;3.40;;
64686;SDS011;51113;53.646;-113.674;2023-06-05T05:24:24;13.32;;;3.55;;
64686;SDS011;51113;53.646;-113.674;2023-06-05T05:26:52;5.35;;;3.10;;
64686;SDS011;51113;53.646;-113.674;2023-06-05T05:29:21;6.55;;;3.30;;
64686;SDS011;51113;53.646;-113.674;2023-06-05T05:31:49;5.65;;;3.20;;
64686;SDS011;51113;53.646;-113.674;2023-06-05T05:34:20;4.90;;;3.10;;
64686;SDS011;51113;53.646;-113.674;2023-06-05T05:36:49;10.10;;;3.78;;
64686;SDS011;51113;53.646;-113.674;2023-06-05T05:39:18;6.47;;;3.50;;
64686;SDS011;51113;53.646;-113.674;2023-06-05T05:41:47;8.25;;;3.45;;
64686;SDS011;51113;53.646;-113.674;2023-06-05T05:44:16;9.90;;;3.58;;
64686;SDS011;51113;53.646;-113.674;2023-06-05T05:46:45;6.15;;;3.55;;
64686;SDS011;51113;53.646;-113.674;2023-06-05T05:49:17;9.23;;;3.90;;
64686;SDS011;51113;53.646;-113.674;2023-06-05T05:51:46;5.60;;;3.17;;
64686;SDS011;51113;53.646;-113.674;2023-06-05T05:54:14;6.80;;;3.33;;
64686;SDS011;51113;53.646;-113.674;2023-06-05T05:56:43;8.82;;;3.53;;
64686;SDS011;51113;53.646;-113.674;2023-06-05T05:59:12;8.70;;;3.30;;
64686;SDS011;51113;53.646;-113.674;2023-06-05T06:01:41;5.78;;;3.33;;
64686;SDS011;51113;53.646;-113.674;2023-06-05T06:04:10;8.65;;;3.47;;
64686;SDS011;51113;53.646;-113.674;2023-06-05T06:06:38;8.25;;;3.72;;
64686;SDS011;51113;53.646;-113.674;2023-06-05T06:09:08;11.23;;;3.55;;
64686;SDS011;51113;53.646;-113.674;2023-06-05T06:11:37;5.38;;;3.33;;
64686;SDS011;51113;53.646;-113.674;2023-06-05T06:14:06;4.93;;;3.20;;
64686;SDS011;51113;53.646;-113.674;2023-06-05T06:16:36;7.70;;;3.50;;
64686;SDS011;51113;53.646;-113.674;2023-06-05T06:19:05;9.80;;;3.35;;
64686;SDS011;51113;53.646;-113.674;2023-06-05T06:21:34;6.95;;;3.55;;
64686;SDS011;51113;53.646;-113.674;2023-06-05T06:24:03;8.48;;;3.70;;
64686;SDS011;51113;53.646;-113.674;2023-06-05T06:26:32;5.95;;;3.40;;
64686;SDS011;51113;53.646;-113.674;2023-06-05T06:29:01;8.00;;;3.40;;
64686;SDS011;51113;53.646;-113.674;2023-06-05T06:31:30;7.60;;;3.40;;
64686;SDS011;51113;53.646;-113.674;2023-06-05T06:33:59;6.90;;;3.38;;
64686;SDS011;51113;53.646;-113.674;2023-06-05T06:36:27;8.27;;;3.97;;
64686;SDS011;51113;53.646;-113.674;2023-06-05T06:38:56;5.80;;;3.65;;
64686;SDS011;51113;53.646;-113.674;2023-06-05T06:41:25;9.05;;;3.50;;
64686;SDS011;51113;53.646;-113.674;2023-06-05T06:43:54;4.35;;;3.70;;
64686;SDS011;51113;53.646;-113.674;2023-06-05T06:46:22;7.30;;;3.80;;
64686;SDS011;51113;53.646;-113.674;2023-06-05T06:48:51;6.38;;;3.55;;
64686;SDS011;51113;53.646;-113.674;2023-06-05T06:51:20;15.65;;;3.65;;
64686;SDS011;51113;53.646;-113.674;2023-06-05T06:53:52;6.15;;;3.60;;
64686;SDS011;51113;53.646;-113.674;2023-06-05T06:56:21;5.22;;;3.97;;
64686;SDS011;51113;53.646;-113.674;2023-06-05T06:58:49;6.90;;;3.50;;
64686;SDS011;51113;53.646;-113.674;2023-06-05T07:01:18;9.82;;;3.90;;
64686;SDS011;51113;53.646;-113.674;2023-06-05T07:03:48;7.50;;;3.85;;
64686;SDS011;51113;53.646;-113.674;2023-06-05T07:06:16;5.63;;;3.40;;
64686;SDS011;51113;53.646;-113.674;2023-06-05T07:08:45;5.63;;;3.92;;
64686;SDS011;51113;53.646;-113.674;2023-06-05T07:11:14;15.90;;;3.95;;
64686;SDS011;51113;53.646;-113.674;2023-06-05T07:13:42;5.90;;;3.90;;
64686;SDS011;51113;53.646;-113.674;2023-06-05T07:16:10;8.35;;;3.80;;
64686;SDS011;51113;53.646;-113.674;2023-06-05T07:18:39;11.07;;;4.13;;
64686;SDS011;51113;53.646;-113.674;2023-06-05T07:21:07;8.48;;;3.80;;
64686;SDS011;51113;53.646;-113.674;2023-06-05T07:23:36;5.90;;;3.78;;
64686;SDS011;51113;53.646;-113.674;2023-06-05T07:26:07;6.13;;;3.78;;
64686;SDS011;51113;53.646;-113.674;2023-06-05T07:28:36;4.82;;;3.35;;
64686;SDS011;51113;53.646;-113.674;2023-06-05T07:31:04;7.20;;;4.20;;
64686;SDS011;51113;53.646;-113.674;2023-06-05T07:33:33;7.85;;;4.00;;
64686;SDS011;51113;53.646;-113.674;2023-06-05T07:36:02;6.15;;;4.07;;
64686;SDS011;51113;53.646;-113.674;2023-06-05T07:38:31;8.05;;;4.25;;
64686;SDS011;51113;53.646;-113.674;2023-06-05T07:41:00;8.75;;;4.13;;
64686;SDS011;51113;53.646;-113.674;2023-06-05T07:43:29;9.25;;;3.85;;
64686;SDS011;51113;53.646;-113.674;2023-06-05T07:45:58;6.72;;;4.20;;
64686;SDS011;51113;53.646;-113.674;2023-06-05T07:48:27;7.38;;;4.47;;
64686;SDS011;51113;53.646;-113.674;2023-06-05T07:50:56;9.70;;;3.80;;
64686;SDS011;51113;53.646;-113.674;2023-06-05T07:53:24;8.68;;;4.10;;
64686;SDS011;51113;53.646;-113.674;2023-06-05T07:55:53;7.95;;;4.07;;
64686;SDS011;51113;53.646;-113.674;2023-06-05T07:58:22;9.70;;;4.30;;
64686;SDS011;51113;53.646;-113.674;2023-06-05T08:00:51;10.57;;;4.20;;
64686;SDS011;51113;53.646;-113.674;2023-06-05T08:03:20;6.72;;;4.15;;
64686;SDS011;51113;53.646;-113.674;2023-06-05T08:05:49;7.43;;;4.57;;
64686;SDS011;51113;53.646;-113.674;2023-06-05T08:08:18;7.68;;;4.60;;
64686;SDS011;51113;53.646;-113.674;2023-06-05T08:10:47;10.98;;;5.15;;
64686;SDS011;51113;53.646;-113.674;2023-06-05T08:13:16;15.98;;;5.40;;
64686;SDS011;51113;53.646;-113.674;2023-06-05T08:15:45;7.95;;;5.35;;
64686;SDS011;51113;53.646;-113.674;2023-06-05T08:18:14;10.10;;;4.50;;
64686;SDS011;51113;53.646;-113.674;2023-06-05T08:20:44;10.40;;;4.40;;
64686;SDS011;51113;53.646;-113.674;2023-06-05T08:23:12;13.38;;;4.47;;
64686;SDS011;51113;53.646;-113.674;2023-06-05T08:25:42;9.77;;;4.50;;
64686;SDS011;51113;53.646;-113.674;2023-06-05T08:28:11;13.30;;;4.38;;
64686;SDS011;51113;53.646;-113.674;2023-06-05T08:30:39;11.65;;;3.83;;
64686;SDS011;51113;53.646;-113.674;2023-06-05T08:33:08;6.63;;;4.00;;
64686;SDS011;51113;53.646;-113.674;2023-06-05T08:35:41;12.88;;;3.60;;
64686;SDS011;51113;53.646;-113.674;2023-06-05T08:38:09;6.45;;;3.90;;
64686;SDS011;51113;53.646;-113.674;2023-06-05T08:40:38;13.30;;;3.90;;
64686;SDS011;51113;53.646;-113.674;2023-06-05T08:43:07;16.15;;;3.47;;
64686;SDS011;51113;53.646;-113.674;2023-06-05T08:45:35;5.47;;;2.42;;
64686;SDS011;51113;53.646;-113.674;2023-06-05T08:48:04;10.43;;;2.63;;
64686;SDS011;51113;53.646;-113.674;2023-06-05T08:53:06;5.40;;;2.85;;
64686;SDS011;51113;53.646;-113.674;2023-06-05T08:55:36;7.28;;;2.50;;
64686;SDS011;51113;53.646;-113.674;2023-06-05T08:58:05;10.98;;;3.15;;
64686;SDS011;51113;53.646;-113.674;2023-06-05T09:00:35;5.18;;;2.53;;
64686;SDS011;51113;53.646;-113.674;2023-06-05T09:03:04;14.00;;;3.85;;
64686;SDS011;51113;53.646;-113.674;2023-06-05T09:05:33;5.90;;;2.17;;
64686;SDS011;51113;53.646;-113.674;2023-06-05T09:08:02;13.82;;;2.63;;
64686;SDS011;51113;53.646;-113.674;2023-06-05T09:10:31;4.20;;;2.20;;
64686;SDS011;51113;53.646;-113.674;2023-06-05T09:13:01;9.30;;;2.00;;
64686;SDS011;51113;53.646;-113.674;2023-06-05T09:15:32;8.80;;;2.45;;
64686;SDS011;51113;53.646;-113.674;2023-06-05T09:20:39;15.77;;;2.20;;
64686;SDS011;51113;53.646;-113.674;2023-06-05T09:23:25;7.78;;;1.92;;
64686;SDS011;51113;53.646;-113.674;2023-06-05T09:25:57;3.65;;;2.15;;
64686;SDS011;51113;53.646;-113.674;2023-06-05T09:28:27;10.85;;;2.38;;
64686;SDS011;51113;53.646;-113.674;2023-06-05T09:31:02;3.08;;;1.75;;
64686;SDS011;51113;53.646;-113.674;2023-06-05T09:33:33;5.93;;;2.10;;
64686;SDS011;51113;53.646;-113.674;2023-06-05T09:38:41;5.95;;;1.92;;
64686;SDS011;51113;53.646;-113.674;2023-06-05T09:41:11;5.47;;;1.50;;
64686;SDS011;51113;53.646;-113.674;2023-06-05T09:43:42;3.95;;;1.73;;
64686;SDS011;51113;53.646;-113.674;2023-06-05T09:46:11;6.43;;;2.03;;
64686;SDS011;51113;53.646;-113.674;2023-06-05T09:48:41;5.28;;;1.50;;
64686;SDS011;51113;53.646;-113.674;2023-06-05T09:51:18;2.20;;;1.40;;
64686;SDS011;51113;53.646;-113.674;2023-06-05T09:53:48;5.93;;;1.75;;
64686;SDS011;51113;53.646;-113.674;2023-06-05T09:56:18;3.30;;;1.58;;
64686;SDS011;51113;53.646;-113.674;2023-06-05T09:58:50;12.90;;;1.88;;
64686;SDS011;51113;53.646;-113.674;2023-06-05T10:01:22;3.17;;;1.60;;
64686;SDS011;51113;53.646;-113.674;2023-06-05T10:03:59;2.03;;;1.40;;
64686;SDS011;51113;53.646;-113.674;2023-06-05T10:06:31;9.85;;;1.70;;
64686;SDS011;51113;53.646;-113.674;2023-06-05T10:09:01;8.95;;;1.50;;
64686;SDS011;51113;53.646;-113.674;2023-06-05T10:11:30;5.50;;;1.50;;
64686;SDS011;51113;53.646;-113.674;2023-06-05T10:14:00;3.72;;;1.50;;
64686;SDS011;51113;53.646;-113.674;2023-06-05T10:16:31;5.05;;;1.52;;
64686;SDS011;51113;53.646;-113.674;2023-06-05T10:19:01;19.45;;;1.92;;
64686;SDS011;51113;53.646;-113.674;2023-06-05T10:21:31;3.60;;;1.33;;
64686;SDS011;51113;53.646;-113.674;2023-06-05T10:24:04;9.15;;;1.40;;
64686;SDS011;51113;53.646;-113.674;2023-06-05T10:32:53;4.25;;;1.60;;
64686;SDS011;51113;53.646;-113.674;2023-06-05T10:38:23;3.10;;;1.40;;
64686;SDS011;51113;53.646;-113.674;2023-06-05T10:40:54;2.13;;;1.40;;
64686;SDS011;51113;53.646;-113.674;2023-06-05T10:43:26;4.47;;;1.50;;
64686;SDS011;51113;53.646;-113.674;2023-06-05T10:51:43;2.58;;;1.30;;
64686;SDS011;51113;53.646;-113.674;2023-06-05T10:54:15;3.63;;;1.48;;
64686;SDS011;51113;53.646;-113.674;2023-06-05T10:57:03;11.93;;;1.60;;
64686;SDS011;51113;53.646;-113.674;2023-06-05T10:59:38;3.15;;;1.10;;
64686;SDS011;51113;53.646;-113.674;2023-06-05T11:15:08;8.32;;;1.48;;
64686;SDS011;51113;53.646;-113.674;2023-06-05T11:17:39;5.50;;;1.50;;
64686;SDS011;51113;53.646;-113.674;2023-06-05T11:25:24;1.83;;;1.27;;
64686;SDS011;51113;53.646;-113.674;2023-06-05T11:28:01;3.13;;;1.27;;
64686;SDS011;51113;53.646;-113.674;2023-06-05T11:30:41;4.80;;;1.30;;
64686;SDS011;51113;53.646;-113.674;2023-06-05T11:35:46;9.20;;;1.60;;
64686;SDS011;51113;53.646;-113.674;2023-06-05T11:38:17;3.08;;;1.50;;
64686;SDS011;51113;53.646;-113.674;2023-06-05T11:40:50;3.85;;;1.50;;
64686;SDS011;51113;53.646;-113.674;2023-06-05T11:43:20;3.90;;;1.40;;
64686;SDS011;51113;53.646;-113.674;2023-06-05T11:45:55;5.72;;;1.73;;
64686;SDS011;51113;53.646;-113.674;2023-06-05T11:48:25;3.58;;;1.42;;
64686;SDS011;51113;53.646;-113.674;2023-06-05T11:50:58;3.83;;;1.52;;
64686;SDS011;51113;53.646;-113.674;2023-06-05T11:53:31;2.30;;;1.40;;
64686;SDS011;51113;53.646;-113.674;2023-06-05T11:56:01;2.97;;;1.50;;
64686;SDS011;51113;53.646;-113.674;2023-06-05T11:58:43;8.32;;;1.42;;
64686;SDS011;51113;53.646;-113.674;2023-06-05T12:01:13;1.90;;;1.13;;
64686;SDS011;51113;53.646;-113.674;2023-06-05T12:04:01;10.65;;;1.98;;
64686;SDS011;51113;53.646;-113.674;2023-06-05T12:06:31;3.95;;;1.40;;
64686;SDS011;51113;53.646;-113.674;2023-06-05T12:09:08;5.85;;;1.50;;
64686;SDS011;51113;53.646;-113.674;2023-06-05T12:11:42;2.85;;;1.20;;
64686;SDS011;51113;53.646;-113.674;2023-06-05T12:16:59;2.50;;;1.40;;
64686;SDS011;51113;53.646;-113.674;2023-06-05T12:19:36;3.38;;;1.40;;
64686;SDS011;51113;53.646;-113.674;2023-06-05T12:22:05;6.75;;;1.58;;
64686;SDS011;51113;53.646;-113.674;2023-06-05T12:24:37;6.90;;;1.45;;
64686;SDS011;51113;53.646;-113.674;2023-06-05T12:27:05;7.30;;;1.60;;
64686;SDS011;51113;53.646;-113.674;2023-06-05T12:29:35;9.23;;;1.38;;
64686;SDS011;51113;53.646;-113.674;2023-06-05T12:32:22;2.80;;;1.40;;
64686;SDS011;51113;53.646;-113.674;2023-06-05T12:34:54;5.32;;;1.60;;
64686;SDS011;51113;53.646;-113.674;2023-06-05T12:37:32;5.28;;;1.50;;
64686;SDS011;51113;53.646;-113.674;2023-06-05T12:40:12;3.67;;;1.73;;
64686;SDS011;51113;53.646;-113.674;2023-06-05T12:42:58;4.30;;;1.48;;
64686;SDS011;51113;53.646;-113.674;2023-06-05T12:45:27;3.30;;;1.35;;
64686;SDS011;51113;53.646;-113.674;2023-06-05T12:47:58;7.55;;;1.55;;
64686;SDS011;51113;53.646;-113.674;2023-06-05T12:50:26;6.65;;;1.40;;
64686;SDS011;51113;53.646;-113.674;2023-06-05T12:52:56;3.17;;;1.40;;
64686;SDS011;51113;53.646;-113.674;2023-06-05T12:55:25;3.88;;;1.63;;
64686;SDS011;51113;53.646;-113.674;2023-06-05T12:57:56;7.38;;;1.50;;
64686;SDS011;51113;53.646;-113.674;2023-06-05T13:00:24;12.63;;;1.73;;
64686;SDS011;51113;53.646;-113.674;2023-06-05T13:02:53;8.98;;;1.75;;
64686;SDS011;51113;53.646;-113.674;2023-06-05T13:05:23;6.00;;;2.17;;
64686;SDS011;51113;53.646;-113.674;2023-06-05T13:07:52;11.07;;;1.75;;
64686;SDS011;51113;53.646;-113.674;2023-06-05T13:10:22;13.05;;;2.00;;
64686;SDS011;51113;53.646;-113.674;2023-06-05T13:12:51;13.25;;;2.00;;
64686;SDS011;51113;53.646;-113.674;2023-06-05T13:15:20;7.40;;;1.75;;
64686;SDS011;51113;53.646;-113.674;2023-06-05T13:17:48;2.58;;;1.50;;
64686;SDS011;51113;53.646;-113.674;2023-06-05T13:20:17;5.43;;;1.23;;
64686;SDS011;51113;53.646;-113.674;2023-06-05T13:22:46;6.22;;;1.58;;
64686;SDS011;51113;53.646;-113.674;2023-06-05T13:25:15;6.28;;;1.27;;
64686;SDS011;51113;53.646;-113.674;2023-06-05T13:27:43;3.83;;;1.60;;
64686;SDS011;51113;53.646;-113.674;2023-06-05T13:30:11;5.25;;;1.92;;
64686;SDS011;51113;53.646;-113.674;2023-06-05T13:32:40;7.95;;;2.20;;
64686;SDS011;51113;53.646;-113.674;2023-06-05T13:35:09;5.55;;;1.48;;
64686;SDS011;51113;53.646;-113.674;2023-06-05T13:37:39;8.85;;;1.80;;
64686;SDS011;51113;53.646;-113.674;2023-06-05T13:40:08;14.82;;;2.88;;
64686;SDS011;51113;53.646;-113.674;2023-06-05T13:42:38;4.55;;;1.75;;
64686;SDS011;51113;53.646;-113.674;2023-06-05T13:45:07;3.83;;;1.35;;
64686;SDS011;51113;53.646;-113.674;2023-06-05T13:47:37;4.20;;;1.63;;
64686;SDS011;51113;53.646;-113.674;2023-06-05T13:50:06;3.58;;;1.48;;
64686;SDS011;51113;53.646;-113.674;2023-06-05T13:52:35;11.70;;;1.88;;
64686;SDS011;51113;53.646;-113.674;2023-06-05T13:55:04;4.63;;;2.15;;
64686;SDS011;51113;53.646;-113.674;2023-06-05T13:57:34;6.97;;;1.60;;
64686;SDS011;51113;53.646;-113.674;2023-06-05T14:00:03;4.35;;;2.00;;
64686;SDS011;51113;53.646;-113.674;2023-06-05T14:02:33;3.90;;;2.10;;
64686;SDS011;51113;53.646;-113.674;2023-06-05T14:05:02;8.20;;;1.83;;
64686;SDS011;51113;53.646;-113.674;2023-06-05T14:07:31;4.90;;;1.65;;
64686;SDS011;51113;53.646;-113.674;2023-06-05T14:10:14;4.45;;;1.80;;
64686;SDS011;51113;53.646;-113.674;2023-06-05T14:12:42;15.00;;;1.83;;
64686;SDS011;51113;53.646;-113.674;2023-06-05T14:15:11;5.95;;;2.00;;
64686;SDS011;51113;53.646;-113.674;2023-06-05T14:17:40;5.65;;;1.65;;
64686;SDS011;51113;53.646;-113.674;2023-06-05T14:20:09;5.75;;;1.85;;
64686;SDS011;51113;53.646;-113.674;2023-06-05T14:22:39;7.93;;;1.90;;
64686;SDS011;51113;53.646;-113.674;2023-06-05T14:25:08;13.32;;;1.70;;
64686;SDS011;51113;53.646;-113.674;2023-06-05T14:27:38;17.02;;;1.90;;
64686;SDS011;51113;53.646;-113.674;2023-06-05T14:30:07;4.55;;;1.60;;
64686;SDS011;51113;53.646;-113.674;2023-06-05T14:32:36;8.02;;;1.90;;
64686;SDS011;51113;53.646;-113.674;2023-06-05T14:35:05;2.78;;;1.65;;
64686;SDS011;51113;53.646;-113.674;2023-06-05T14:37:34;8.30;;;1.90;;
64686;SDS011;51113;53.646;-113.674;2023-06-05T14:40:03;8.40;;;1.88;;
64686;SDS011;51113;53.646;-113.674;2023-06-05T14:42:32;4.60;;;1.70;;
64686;SDS011;51113;53.646;-113.674;2023-06-05T14:45:00;7.97;;;2.25;;
64686;SDS011;51113;53.646;-113.674;2023-06-05T14:47:30;7.65;;;2.03;;
64686;SDS011;51113;53.646;-113.674;2023-06-05T14:49:59;5.47;;;2.00;;
64686;SDS011;51113;53.646;-113.674;2023-06-05T14:52:28;7.13;;;2.08;;
64686;SDS011;51113;53.646;-113.674;2023-06-05T14:54:56;10.10;;;2.22;;
64686;SDS011;51113;53.646;-113.674;2023-06-05T14:57:35;6.32;;;2.10;;
64686;SDS011;51113;53.646;-113.674;2023-06-05T15:00:05;5.82;;;1.92;;
64686;SDS011;51113;53.646;-113.674;2023-06-05T15:02:35;5.88;;;1.98;;
64686;SDS011;51113;53.646;-113.674;2023-06-05T15:05:04;6.15;;;2.10;;
64686;SDS011;51113;53.646;-113.674;2023-06-05T15:07:37;7.97;;;1.88;;
64686;SDS011;51113;53.646;-113.674;2023-06-05T15:10:07;6.50;;;2.10;;
64686;SDS011;51113;53.646;-113.674;2023-06-05T15:12:39;5.32;;;1.90;;
64686;SDS011;51113;53.646;-113.674;2023-06-05T15:15:07;6.47;;;1.80;;